Time;durP1;ratioP1;P1;durP2;ratioP2;P2;SDS_P1;SDS_P2;PMS_P1;PMS_P2;Temp;Humidity;BMP_temperature;BMP_pressure;BME280_temperature;BME280_humidity;BME280_pressure;Samples;Min_cycle;Max_cycle;Signal;HPM_P1;HPM_P2
2021/03/05 00:02:24;;;;;;;8.87;8.00;;;;;;;7.04;89.91;96727.25;5077637;28;20703;-74
2021/03/05 00:04:49;;;;;;;9.83;8.07;;;;;;;7.01;89.84;96727.66;5088906;28;20703;-74
2021/03/05 00:07:14;;;;;;;9.33;8.43;;;;;;;7.05;90.04;96734.06;5083119;28;20165;-74
2021/03/05 00:09:40;;;;;;;9.10;8.20;;;;;;;6.98;90.59;96738.47;5085839;28;20584;-74
2021/03/05 00:12:07;;;;;;;12.30;9.73;;;;;;;6.86;90.64;96735.72;5087949;28;20181;-73
2021/03/05 00:14:33;;;;;;;12.03;10.20;;;;;;;6.68;91.62;96745.97;5078154;28;20221;-73
2021/03/05 00:16:58;;;;;;;12.30;10.80;;;;;;;6.57;91.66;96751.81;5079989;28;20605;-71
2021/03/05 00:19:23;;;;;;;15.87;13.33;;;;;;;6.30;92.41;96750.22;5081394;28;20279;-71
2021/03/05 00:21:49;;;;;;;15.83;14.13;;;;;;;6.22;93.41;96753.81;5084325;28;20192;-71
2021/03/05 00:24:14;;;;;;;16.07;14.47;;;;;;;6.00;93.87;96761.00;5074829;28;20243;-71
2021/03/05 00:26:39;;;;;;;13.37;11.87;;;;;;;5.84;91.99;96761.34;5081071;28;20181;-71
2021/03/05 00:29:05;;;;;;;12.30;11.00;;;;;;;5.83;90.02;96755.34;5076555;28;20185;-71
2021/03/05 00:31:30;;;;;;;14.17;12.67;;;;;;;5.79;88.98;96763.72;5089143;28;20184;-71
2021/03/05 00:33:56;;;;;;;15.03;13.40;;;;;;;5.66;88.90;96769.69;5077718;28;20233;-68
2021/03/05 00:36:21;;;;;;;14.77;13.17;;;;;;;5.61;88.38;96773.88;5080279;28;20248;-71
2021/03/05 00:38:46;;;;;;;17.87;14.00;;;;;;;5.42;88.54;96760.59;5087622;28;20630;-71
2021/03/05 00:41:12;;;;;;;17.50;14.73;;;;;;;5.29;89.24;96767.56;5078790;28;20199;-70
2021/03/05 00:43:37;;;;;;;19.77;16.73;;;;;;;5.22;89.22;96766.72;5091415;28;20189;-71
2021/03/05 00:46:02;;;;;;;21.00;15.93;;;;;;;5.16;89.59;96776.09;5089091;28;20192;-71
2021/03/05 00:48:28;;;;;;;20.93;16.40;;;;;;;4.98;89.83;96775.78;5073272;28;20238;-71
2021/03/05 00:50:53;;;;;;;21.33;16.83;;;;;;;5.11;89.54;96778.47;5085393;28;20540;-71
2021/03/05 00:53:19;;;;;;;21.57;17.30;;;;;;;4.93;90.50;96778.16;5085011;28;20673;-71
2021/03/05 00:55:44;;;;;;;22.17;17.87;;;;;;;4.87;91.02;96782.31;5075265;28;20185;-71
2021/03/05 00:58:09;;;;;;;22.73;18.23;;;;;;;4.64;91.85;96784.38;5071793;28;20308;-71
2021/03/05 01:00:35;;;;;;;23.87;18.40;;;;;;;4.84;92.17;96794.91;5075914;28;20184;-73
2021/03/05 01:03:00;;;;;;;24.33;18.37;;;;;;;4.59;92.65;96789.31;5079391;28;20185;-72
2021/03/05 01:05:26;;;;;;;26.60;20.00;;;;;;;4.53;93.74;96801.25;5082224;28;20663;-72
2021/03/05 01:07:51;;;;;;;26.13;19.57;;;;;;;4.61;94.56;96792.53;5077203;28;20188;-72
2021/03/05 01:10:18;;;;;;;26.57;19.13;;;;;;;4.59;96.17;96797.09;5079172;28;20263;-73
2021/03/05 01:12:43;;;;;;;27.10;19.50;;;;;;;4.54;96.33;96797.69;5080768;28;20200;-73
2021/03/05 01:15:09;;;;;;;26.10;20.00;;;;;;;4.54;95.89;96797.69;5083197;28;20191;-72
2021/03/05 01:17:34;;;;;;;25.20;18.97;;;;;;;4.20;96.57;96797.59;5083079;28;20633;-72
2021/03/05 01:20:01;;;;;;;24.27;18.83;;;;;;;4.03;96.94;96799.63;5087991;28;20185;-68
2021/03/05 01:22:26;;;;;;;26.90;19.23;;;;;;;3.74;98.04;96810.09;5084314;28;20187;-72
2021/03/05 01:24:51;;;;;;;29.37;20.57;;;;;;;3.89;98.24;96818.66;5089142;28;20637;-72
2021/03/05 01:27:17;;;;;;;29.00;19.87;;;;;;;4.03;99.87;96812.59;5089161;28;20172;-72
2021/03/05 01:29:42;;;;;;;29.07;19.40;;;;;;;4.02;96.87;96812.78;5081057;28;20208;-72
2021/03/05 01:32:08;;;;;;;30.23;20.60;;;;;;;3.65;96.59;96824.97;5096234;28;20205;-73
2021/03/05 01:34:33;;;;;;;29.70;21.37;;;;;;;3.68;96.41;96824.56;5090399;28;20233;-72
2021/03/05 01:36:58;;;;;;;31.67;21.70;;;;;;;3.54;97.98;96822.03;5085338;28;20181;-68
2021/03/05 01:39:24;;;;;;;36.13;22.50;;;;;;;3.35;97.76;96825.97;5087936;28;20181;-71
2021/03/05 01:41:49;;;;;;;33.90;22.03;;;;;;;3.50;97.50;96826.78;5090734;28;20633;-71
2021/03/05 01:44:16;;;;;;;34.50;21.70;;;;;;;3.39;97.27;96827.25;5081355;28;20185;-71
2021/03/05 01:46:42;;;;;;;37.40;22.87;;;;;;;3.34;97.49;96837.34;5093581;28;20211;-72
2021/03/05 01:49:08;;;;;;;36.90;21.80;;;;;;;3.54;97.07;96827.22;5087225;28;20193;-71
2021/03/05 01:51:36;;;;;;;32.40;21.00;;;;;;;3.69;96.65;96839.16;5087006;28;20195;-71
2021/03/05 01:54:03;;;;;;;30.80;20.20;;;;;;;3.28;96.69;96828.50;5085265;28;20205;-67
2021/03/05 01:59:50;;;;;;;31.50;19.53;;;;;;;3.22;97.33;96833.59;5077661;28;20172;-72
2021/03/05 02:02:16;;;;;;;32.50;20.73;;;;;;;3.26;98.55;96834.84;5075687;28;20606;-71
2021/03/05 02:04:42;;;;;;;36.53;21.43;;;;;;;3.09;100.00;96829.03;5077668;28;20272;-72
2021/03/05 02:07:08;;;;;;;39.17;21.60;;;;;;;3.14;100.00;96834.47;5085213;28;20256;-73
2021/03/05 02:09:34;;;;;;;39.47;22.57;;;;;;;3.07;100.00;96833.56;5084983;28;20254;-73
2021/03/05 02:12:01;;;;;;;45.27;24.57;;;;;;;2.95;100.00;96827.25;5088932;28;20633;-68
2021/03/05 02:14:27;;;;;;;46.13;24.13;;;;;;;3.10;100.00;96848.78;5081951;28;20223;-72
2021/03/05 02:17:08;;;;;;;50.17;26.70;;;;;;;2.92;100.00;96841.34;5094104;28;20188;-72
2021/03/05 02:19:55;;;;;;;48.57;25.97;;;;;;;3.03;100.00;96840.09;5084874;28;20169;-72
2021/03/05 02:22:58;;;;;;;46.07;24.97;;;;;;;2.79;100.00;96840.31;5078388;28;20269;-72
2021/03/05 02:25:44;;;;;;;47.33;25.53;;;;;;;2.80;100.00;96844.53;5078768;28;20645;-73
2021/03/05 02:28:09;;;;;;;46.43;25.40;;;;;;;2.79;100.00;96835.16;5096041;28;20193;-70
2021/03/05 02:31:11;;;;;;;49.00;26.87;;;;;;;2.69;100.00;96842.38;5092499;28;20657;-70
2021/03/05 02:33:52;;;;;;;42.40;24.77;;;;;;;2.65;100.00;96839.34;5079024;28;20204;-71
2021/03/05 02:36:30;;;;;;;42.83;23.07;;;;;;;2.58;100.00;96843.59;5091027;28;20250;-72
2021/03/05 02:39:37;;;;;;;45.70;24.37;;;;;;;2.45;100.00;96841.59;5088679;28;20164;-70
2021/03/05 02:42:06;;;;;;;39.53;22.93;;;;;;;2.52;100.00;96841.72;5010938;28;20205;-67
2021/03/05 02:44:33;;;;;;;40.07;22.37;;;;;;;2.57;100.00;96844.56;4976040;28;20204;-73
2021/03/05 02:47:05;;;;;;;39.37;22.40;;;;;;;2.60;100.00;96846.81;5001646;28;20207;-68
2021/03/05 02:49:34;;;;;;;39.30;21.10;;;;;;;2.63;100.00;96851.63;5011461;28;20195;-71
2021/03/05 02:52:06;;;;;;;44.93;23.03;;;;;;;2.54;100.00;96850.09;5010984;28;20206;-66
2021/03/05 02:54:36;;;;;;;36.90;21.53;;;;;;;2.62;100.00;96851.84;5011443;28;20212;-71
2021/03/05 02:57:02;;;;;;;39.30;21.53;;;;;;;2.55;100.00;96853.50;5010557;28;20198;-69
2021/03/05 02:59:31;;;;;;;39.90;21.97;;;;;;;2.59;100.00;96862.50;5011642;28;20234;-72
2021/03/05 03:01:57;;;;;;;39.17;21.03;;;;;;;2.56;100.00;96860.28;5010987;28;20188;-73
2021/03/05 03:04:27;;;;;;;34.37;19.80;;;;;;;2.61;100.00;96861.38;5010408;28;20195;-68
2021/03/05 03:06:53;;;;;;;36.00;20.17;;;;;;;2.62;100.00;96864.78;5010941;28;20191;-70
2021/03/05 03:09:21;;;;;;;35.27;20.03;;;;;;;2.54;100.00;96875.97;5010534;28;20198;-70
2021/03/05 03:11:47;;;;;;;34.03;21.23;;;;;;;2.56;100.00;96865.47;5019549;28;20179;-70
2021/03/05 03:14:14;;;;;;;34.70;19.83;;;;;;;2.57;100.00;96870.44;5092439;28;20216;-70
2021/03/05 03:16:41;;;;;;;32.37;19.57;;;;;;;2.61;100.00;96871.72;5081728;28;20185;-70
2021/03/05 03:19:11;;;;;;;39.87;22.03;;;;;;;2.54;100.00;96878.56;5072550;28;20260;-70
2021/03/05 03:21:37;;;;;;;38.97;20.47;;;;;;;2.50;100.00;96875.53;5077413;28;20169;-70
2021/03/05 03:24:04;;;;;;;35.17;20.90;;;;;;;2.63;100.00;96881.88;5085747;28;20190;-66
2021/03/05 03:26:30;;;;;;;34.30;20.27;;;;;;;2.57;100.00;96880.78;5084404;28;20208;-71
2021/03/05 03:28:56;;;;;;;37.20;20.73;;;;;;;2.54;100.00;96888.91;5092166;28;20208;-70
2021/03/05 03:31:22;;;;;;;32.00;19.43;;;;;;;2.57;100.00;96885.97;5075514;28;20700;-70
2021/03/05 03:33:47;;;;;;;35.70;20.13;;;;;;;2.50;100.00;96887.66;5088260;28;20213;-70
2021/03/05 03:36:14;;;;;;;33.17;19.63;;;;;;;2.34;100.00;96883.38;5080231;28;20333;-70
2021/03/05 03:38:40;;;;;;;33.17;18.67;;;;;;;2.42;100.00;96885.13;5081499;28;20192;-70
2021/03/05 03:41:06;;;;;;;32.33;19.40;;;;;;;2.49;100.00;96888.63;5087171;28;20526;-70
2021/03/05 03:43:31;;;;;;;32.00;19.03;;;;;;;2.39;100.00;96885.47;5091457;28;20226;-70
2021/03/05 03:45:58;;;;;;;29.40;18.90;;;;;;;2.51;100.00;96884.88;5075416;28;20655;-71
2021/03/05 03:48:25;;;;;;;32.13;18.90;;;;;;;2.55;100.00;96893.13;5087549;28;20646;-72
2021/03/05 03:50:59;;;;;;;29.93;18.90;;;;;;;2.58;100.00;96897.13;5081068;28;20180;-72
2021/03/05 03:53:31;;;;;;;29.80;18.40;;;;;;;2.59;100.00;96899.53;5086208;28;20200;-73
2021/03/05 03:55:57;;;;;;;25.07;16.70;;;;;;;2.57;100.00;96898.91;5075750;28;20259;-70
2021/03/05 03:58:26;;;;;;;29.47;18.00;;;;;;;2.49;100.00;96898.97;5088762;28;20189;-69
2021/03/05 04:00:55;;;;;;;29.43;18.10;;;;;;;2.35;100.00;96910.84;5082709;28;20184;-70
2021/03/05 04:03:25;;;;;;;27.57;18.23;;;;;;;2.28;100.00;96903.97;5076221;28;20265;-69
2021/03/05 04:05:52;;;;;;;31.70;19.23;;;;;;;2.43;100.00;96897.06;5076417;28;20188;-70
2021/03/05 04:08:18;;;;;;;27.73;18.70;;;;;;;2.48;100.00;96897.34;5091523;28;20189;-70
2021/03/05 04:10:45;;;;;;;29.80;18.50;;;;;;;2.53;100.00;96895.06;5079564;28;20182;-70
2021/03/05 04:13:13;;;;;;;27.40;18.30;;;;;;;2.34;100.00;96909.25;5086239;28;20210;-70
2021/03/05 04:15:38;;;;;;;25.60;17.70;;;;;;;2.37;100.00;96906.31;5089067;28;20634;-71
2021/03/05 04:18:05;;;;;;;28.23;18.43;;;;;;;2.56;100.00;96907.66;5075713;28;20187;-70
2021/03/05 04:20:35;;;;;;;26.10;17.50;;;;;;;2.37;100.00;96914.09;5082283;28;20592;-70
2021/03/05 04:23:01;;;;;;;26.10;17.20;;;;;;;2.38;100.00;96914.91;5078384;28;20204;-67
2021/03/05 04:25:27;;;;;;;25.53;16.70;;;;;;;2.32;100.00;96916.38;5073145;28;20186;-73
2021/03/05 04:27:52;;;;;;;24.70;17.13;;;;;;;2.35;100.00;96930.75;5088036;28;20590;-71
2021/03/05 04:30:18;;;;;;;24.00;16.70;;;;;;;2.29;100.00;96929.66;5086477;28;20326;-71
2021/03/05 04:32:43;;;;;;;23.20;16.77;;;;;;;2.48;100.00;96936.97;5074605;28;20193;-71
2021/03/05 04:35:10;;;;;;;21.90;15.90;;;;;;;2.33;100.00;96933.53;5077474;28;20224;-72
2021/03/05 04:37:36;;;;;;;21.27;15.53;;;;;;;2.24;100.00;96931.94;5081970;28;20188;-73
2021/03/05 04:40:02;;;;;;;22.03;15.23;;;;;;;2.29;100.00;96934.00;5083006;28;20177;-68
2021/03/05 04:42:28;;;;;;;19.30;14.70;;;;;;;2.35;100.00;96934.13;5081697;28;20177;-73
2021/03/05 04:44:53;;;;;;;21.57;15.10;;;;;;;2.36;100.00;96938.34;5081231;28;20661;-73
2021/03/05 04:47:18;;;;;;;21.97;15.10;;;;;;;2.47;100.00;96931.97;5086913;28;20301;-73
2021/03/05 04:49:44;;;;;;;20.73;15.20;;;;;;;2.51;100.00;96936.59;5074510;28;20188;-73
2021/03/05 04:52:09;;;;;;;21.53;14.93;;;;;;;2.35;100.00;96943.66;5083939;28;20173;-73
2021/03/05 04:54:34;;;;;;;20.47;15.40;;;;;;;2.32;100.00;96944.84;5080722;28;20283;-74
2021/03/05 04:57:00;;;;;;;22.00;15.87;;;;;;;2.46;100.00;96946.66;5074804;28;20239;-69
2021/03/05 04:59:25;;;;;;;25.03;15.93;;;;;;;2.50;100.00;96954.91;5089251;28;20220;-72
2021/03/05 05:01:51;;;;;;;21.37;14.33;;;;;;;2.26;100.00;96955.84;5085146;28;20189;-70
2021/03/05 05:04:16;;;;;;;20.30;14.23;;;;;;;2.13;100.00;96947.03;5079812;28;20524;-73
2021/03/05 05:06:41;;;;;;;19.10;14.60;;;;;;;2.18;100.00;96952.50;5091252;28;20280;-74
2021/03/05 05:09:07;;;;;;;18.50;13.63;;;;;;;2.15;100.00;96945.09;5074655;28;20213;-73
2021/03/05 05:11:32;;;;;;;19.60;14.00;;;;;;;2.22;100.00;96949.41;5072943;28;20189;-73
2021/03/05 05:13:58;;;;;;;18.23;13.00;;;;;;;2.15;100.00;96952.84;5086750;28;20212;-72
2021/03/05 05:16:26;;;;;;;21.23;14.80;;;;;;;2.28;100.00;96953.09;5081188;28;20935;-73
2021/03/05 05:18:52;;;;;;;20.60;14.30;;;;;;;2.25;100.00;96959.41;5080377;28;20180;-73
2021/03/05 05:21:17;;;;;;;19.53;14.23;;;;;;;2.29;100.00;96967.63;5078293;28;20238;-73
2021/03/05 05:23:42;;;;;;;18.53;13.53;;;;;;;2.17;100.00;96972.41;5087499;28;20191;-73
2021/03/05 05:26:08;;;;;;;18.43;13.80;;;;;;;2.16;100.00;96960.44;5074004;28;20183;-73
2021/03/05 05:28:33;;;;;;;20.77;14.17;;;;;;;2.11;100.00;96970.47;5086075;28;20189;-71
2021/03/05 05:30:58;;;;;;;17.70;13.03;;;;;;;2.10;100.00;96974.03;5074134;28;20248;-70
2021/03/05 05:33:24;;;;;;;18.47;13.53;;;;;;;2.09;100.00;96975.81;5076358;28;20231;-70
2021/03/05 05:35:49;;;;;;;18.47;13.57;;;;;;;2.13;100.00;96975.47;5082983;28;20217;-70
2021/03/05 05:38:15;;;;;;;18.57;12.77;;;;;;;2.19;100.00;96974.78;5076800;28;20306;-70
2021/03/05 05:40:40;;;;;;;19.13;13.00;;;;;;;2.05;100.00;96979.72;5080160;28;20220;-71
2021/03/05 05:43:06;;;;;;;17.43;11.80;;;;;;;2.12;100.00;96979.81;5084061;28;20547;-70
2021/03/05 05:45:31;;;;;;;15.80;11.23;;;;;;;2.19;100.00;96983.34;5073929;28;20523;-70
2021/03/05 05:47:59;;;;;;;15.80;12.20;;;;;;;2.15;100.00;96984.69;5082335;28;20181;-70
2021/03/05 05:50:26;;;;;;;17.37;11.80;;;;;;;2.11;100.00;96990.34;5078457;28;20181;-70
2021/03/05 05:52:55;;;;;;;14.83;11.77;;;;;;;2.03;100.00;96989.41;5074248;28;20279;-72
2021/03/05 05:55:21;;;;;;;15.40;11.47;;;;;;;1.94;100.00;96994.78;5084689;28;20185;-73
2021/03/05 05:57:46;;;;;;;17.60;12.03;;;;;;;2.01;100.00;96993.13;5089870;28;20184;-72
2021/03/05 06:00:12;;;;;;;18.13;12.90;;;;;;;2.07;100.00;96989.88;5075637;28;20189;-71
2021/03/05 06:02:42;;;;;;;16.17;11.37;;;;;;;1.86;100.00;97003.38;5078220;28;20181;-71
2021/03/05 06:05:09;;;;;;;16.77;12.00;;;;;;;1.93;100.00;96996.56;5079685;28;20169;-69
2021/03/05 06:07:36;;;;;;;16.37;11.70;;;;;;;2.05;100.00;97002.97;5084393;28;20179;-74
2021/03/05 06:10:02;;;;;;;15.77;11.57;;;;;;;1.94;100.00;97008.53;5089357;28;20193;-69
2021/03/05 06:12:27;;;;;;;18.77;12.83;;;;;;;1.95;100.00;97012.69;5088098;28;20185;-73
2021/03/05 06:14:53;;;;;;;19.07;12.73;;;;;;;2.03;100.00;97022.22;5087663;28;20220;-73
2021/03/05 06:17:19;;;;;;;17.80;12.33;;;;;;;2.04;100.00;97018.66;5089007;28;20215;-72
2021/03/05 06:19:44;;;;;;;19.03;12.90;;;;;;;2.00;100.00;97018.19;5081833;28;20181;-73
2021/03/05 06:22:28;;;;;;;17.93;12.37;;;;;;;2.04;100.00;97016.88;5081582;28;20213;-68
2021/03/05 06:24:53;;;;;;;18.13;12.10;;;;;;;1.91;100.00;97021.75;5077440;28;20681;-76
2021/03/05 06:27:26;;;;;;;16.70;11.53;;;;;;;1.86;100.00;97034.38;5086124;28;20177;-76
2021/03/05 06:29:52;;;;;;;18.30;11.43;;;;;;;1.96;100.00;97034.19;5074958;28;20177;-68
2021/03/05 06:32:19;;;;;;;16.10;11.27;;;;;;;1.93;100.00;97037.91;5082454;28;20193;-67
2021/03/05 06:34:49;;;;;;;16.27;11.77;;;;;;;2.02;100.00;97036.09;5081414;28;20236;-69
2021/03/05 06:37:20;;;;;;;15.97;11.23;;;;;;;2.08;100.00;97045.78;5091538;28;20187;-68
2021/03/05 06:39:56;;;;;;;17.90;11.37;;;;;;;2.11;100.00;97052.41;5077364;28;20177;-68
2021/03/05 06:42:22;;;;;;;15.80;11.27;;;;;;;2.08;100.00;97045.78;5073991;28;20724;-68
2021/03/05 06:44:47;;;;;;;17.13;11.43;;;;;;;1.91;100.00;97057.94;5081466;28;20181;-69
2021/03/05 06:47:15;;;;;;;15.50;11.23;;;;;;;1.95;100.00;97056.63;5081243;28;20723;-68
2021/03/05 06:49:42;;;;;;;17.13;11.47;;;;;;;2.01;100.00;97062.91;5088451;28;20215;-69
2021/03/05 06:52:07;;;;;;;15.20;10.90;;;;;;;1.98;100.00;97056.31;5073685;28;20180;-68
2021/03/05 06:54:35;;;;;;;17.50;11.77;;;;;;;1.78;100.00;97069.78;5080742;28;20653;-69
2021/03/05 06:57:03;;;;;;;17.87;11.60;;;;;;;1.79;100.00;97067.00;5089955;28;20181;-69
2021/03/05 06:59:37;;;;;;;17.73;11.23;;;;;;;1.91;100.00;97068.28;5091769;28;20196;-68
2021/03/05 07:02:04;;;;;;;20.03;11.27;;;;;;;2.00;100.00;97072.47;5081169;28;20185;-67
2021/03/05 07:04:31;;;;;;;17.17;11.10;;;;;;;2.04;100.00;97075.53;5087907;28;20187;-69
2021/03/05 07:07:02;;;;;;;19.47;11.73;;;;;;;2.02;100.00;97077.44;5089406;28;20272;-69
2021/03/05 07:09:36;;;;;;;17.17;11.23;;;;;;;2.06;100.00;97078.75;5082952;28;20181;-68
2021/03/05 07:12:09;;;;;;;19.63;11.63;;;;;;;1.93;100.00;97089.59;5087888;28;20645;-67
2021/03/05 07:14:36;;;;;;;20.40;11.93;;;;;;;1.89;100.00;97088.31;5084077;28;20227;-68
2021/03/05 07:17:02;;;;;;;19.73;12.17;;;;;;;1.96;100.00;97098.78;5077058;28;20664;-69
2021/03/05 07:19:29;;;;;;;19.00;12.17;;;;;;;1.96;100.00;97094.44;5079300;28;20268;-69
2021/03/05 07:21:56;;;;;;;19.47;12.87;;;;;;;1.78;100.00;97091.25;5075570;28;20519;-69
2021/03/05 07:24:24;;;;;;;18.80;11.67;;;;;;;1.78;100.00;97099.00;5083265;28;20189;-69
2021/03/05 07:26:56;;;;;;;18.23;11.07;;;;;;;1.85;100.00;97104.31;5084454;28;20650;-69
2021/03/05 07:29:31;;;;;;;18.67;12.13;;;;;;;1.84;100.00;97111.25;5080926;28;20178;-69
2021/03/05 07:32:10;;;;;;;21.23;12.50;;;;;;;1.89;100.00;97113.38;5086767;28;20179;-70
2021/03/05 07:34:57;;;;;;;19.67;12.07;;;;;;;1.80;100.00;97115.13;5084405;28;20224;-69
2021/03/05 07:37:36;;;;;;;20.50;12.63;;;;;;;1.86;100.00;97119.66;5081516;28;20204;-69
2021/03/05 07:40:08;;;;;;;18.40;12.20;;;;;;;1.95;100.00;97121.25;5078760;28;20649;-69
2021/03/05 07:42:34;;;;;;;20.03;12.30;;;;;;;1.92;100.00;97126.75;5083956;28;20186;-69
2021/03/05 07:45:02;;;;;;;20.50;11.83;;;;;;;1.98;100.00;97128.69;5090387;28;20219;-69
2021/03/05 07:47:31;;;;;;;19.47;12.93;;;;;;;1.88;100.00;97128.06;5082010;28;20189;-69
2021/03/05 07:50:01;;;;;;;18.90;12.30;;;;;;;1.99;100.00;97134.66;5084256;28;20185;-69
2021/03/05 07:52:26;;;;;;;20.90;12.43;;;;;;;1.88;100.00;97137.59;5083005;28;20189;-69
2021/03/05 07:54:55;;;;;;;20.23;12.23;;;;;;;1.80;100.00;97140.97;5085834;28;20209;-70
2021/03/05 07:57:23;;;;;;;19.27;12.17;;;;;;;1.86;100.00;97140.31;5089072;28;20249;-69
2021/03/05 07:59:50;;;;;;;19.80;12.03;;;;;;;2.04;100.00;97142.72;5071697;28;20639;-66
2021/03/05 08:02:21;;;;;;;19.60;11.97;;;;;;;1.96;100.00;97145.31;5076963;28;20191;-67
2021/03/05 08:04:50;;;;;;;19.50;12.57;;;;;;;2.01;100.00;97145.63;5074720;28;20196;-66
2021/03/05 08:07:16;;;;;;;21.27;12.67;;;;;;;1.98;100.00;97146.78;5087783;28;20189;-68
2021/03/05 08:09:42;;;;;;;20.07;11.90;;;;;;;1.97;100.00;97149.50;5081672;28;20188;-68
2021/03/05 08:12:33;;;;;;;19.73;11.23;;;;;;;2.06;100.00;97154.50;5089249;28;20189;-66
2021/03/05 08:15:05;;;;;;;21.77;12.60;;;;;;;2.21;100.00;97162.41;5083763;28;20207;-67
2021/03/05 08:17:31;;;;;;;18.03;11.23;;;;;;;2.00;100.00;97162.13;5083775;28;20199;-68
2021/03/05 08:19:57;;;;;;;18.43;10.80;;;;;;;2.10;100.00;97173.09;5076156;28;20260;-68
2021/03/05 08:22:23;;;;;;;17.90;12.27;;;;;;;2.12;100.00;97171.13;5088415;28;20281;-68
2021/03/05 08:24:49;;;;;;;20.27;12.93;;;;;;;2.12;100.00;97172.94;5077395;28;20189;-68
2021/03/05 08:27:35;;;;;;;20.53;12.43;;;;;;;2.11;100.00;97171.31;5080021;28;20197;-68
2021/03/05 08:30:05;;;;;;;24.13;13.33;;;;;;;2.16;100.00;97169.03;5088229;28;20593;-69
2021/03/05 08:35:18;;;;;;;24.53;13.57;;;;;;;2.04;100.00;97184.09;5072795;28;20291;-69
2021/03/05 08:38:01;;;;;;;21.13;12.67;;;;;;;2.05;100.00;97165.84;5081287;28;20280;-67
2021/03/05 08:40:45;;;;;;;17.80;11.97;;;;;;;2.11;100.00;97186.84;5084784;28;20753;-67
2021/03/05 08:43:10;;;;;;;20.10;12.50;;;;;;;2.24;100.00;97181.94;5090751;28;20173;-68
2021/03/05 08:45:43;;;;;;;18.73;11.80;;;;;;;2.20;100.00;97185.84;5089953;28;20275;-68
2021/03/05 08:48:08;;;;;;;21.10;12.20;;;;;;;2.20;100.00;97183.25;5082462;28;20212;-65
2021/03/05 08:50:36;;;;;;;21.13;12.70;;;;;;;2.26;100.00;97183.41;5085970;28;20622;-67
2021/03/05 08:53:03;;;;;;;19.10;11.67;;;;;;;2.40;99.33;97182.72;5081594;28;20719;-69
2021/03/05 08:55:35;;;;;;;19.17;12.00;;;;;;;2.32;98.88;97190.50;5077373;28;20256;-67
2021/03/05 08:58:02;;;;;;;22.13;12.27;;;;;;;2.28;99.86;97191.81;5078381;28;20537;-67
2021/03/05 09:00:32;;;;;;;18.73;12.27;;;;;;;2.31;99.59;97191.47;5091806;28;20181;-67
2021/03/05 09:03:14;;;;;;;20.23;12.10;;;;;;;2.41;99.96;97199.03;5090530;28;20177;-67
2021/03/05 09:05:42;;;;;;;18.20;11.57;;;;;;;2.45;98.97;97201.13;5091177;28;20203;-67
2021/03/05 09:08:10;;;;;;;19.33;12.03;;;;;;;2.60;98.92;97195.28;5090525;28;20188;-66
2021/03/05 09:10:47;;;;;;;18.50;11.57;;;;;;;2.70;97.35;97199.28;5091478;28;20184;-67
2021/03/05 09:13:14;;;;;;;17.67;11.23;;;;;;;2.63;97.00;97200.13;5091179;28;20227;-67
2021/03/05 09:15:51;;;;;;;18.60;11.43;;;;;;;2.62;99.72;97208.88;5091390;28;20173;-67
2021/03/05 09:18:19;;;;;;;16.00;10.93;;;;;;;2.74;98.03;97216.09;5091091;28;20255;-68
2021/03/05 09:20:49;;;;;;;16.93;11.07;;;;;;;2.74;98.77;97210.09;5090688;28;20604;-66
2021/03/05 09:23:38;;;;;;;15.97;10.30;;;;;;;2.77;96.96;97210.59;5091108;28;20188;-67
2021/03/05 09:26:08;;;;;;;17.60;10.87;;;;;;;2.59;96.75;97210.00;5091237;28;20169;-67
2021/03/05 09:28:39;;;;;;;16.63;10.47;;;;;;;2.48;97.17;97218.13;5090949;28;20659;-67
2021/03/05 09:31:05;;;;;;;18.60;11.20;;;;;;;2.60;97.81;97221.16;5091651;28;20184;-67
2021/03/05 09:33:38;;;;;;;16.23;10.80;;;;;;;2.70;96.53;97216.59;5089378;28;20726;-67
2021/03/05 09:36:06;;;;;;;18.50;11.17;;;;;;;2.85;98.05;97218.31;5091291;28;20217;-67
2021/03/05 09:38:32;;;;;;;16.43;10.57;;;;;;;2.86;95.25;97224.31;5090884;28;20187;-67
2021/03/05 09:41:13;;;;;;;16.23;10.63;;;;;;;2.84;96.31;97221.09;5091210;28;20177;-67
2021/03/05 09:43:39;;;;;;;16.17;10.60;;;;;;;2.69;93.84;97228.72;5077177;28;20180;-67
2021/03/05 09:46:37;;;;;;;17.47;10.87;;;;;;;2.84;95.32;97226.28;5094816;28;20699;-67
2021/03/05 09:49:25;;;;;;;17.57;10.43;;;;;;;2.84;94.13;97226.28;5094668;28;20192;-67
2021/03/05 09:51:52;;;;;;;12.87;9.67;;;;;;;2.79;92.59;97231.13;5095274;28;20653;-67
2021/03/05 09:54:19;;;;;;;15.83;10.67;;;;;;;2.83;92.37;97242.78;5094318;28;20683;-67
2021/03/05 09:56:46;;;;;;;14.87;10.47;;;;;;;2.78;92.43;97240.69;5094750;28;20186;-67
2021/03/05 09:59:13;;;;;;;15.67;10.63;;;;;;;2.63;92.60;97238.94;5094329;28;20586;-66
2021/03/05 10:01:40;;;;;;;16.53;10.07;;;;;;;2.60;93.61;97250.44;5076120;28;20191;-68
2021/03/05 10:04:08;;;;;;;14.37;9.97;;;;;;;2.70;92.15;97243.28;5074871;28;20812;-67
2021/03/05 10:06:33;;;;;;;16.57;10.57;;;;;;;2.71;91.90;97247.50;5036598;28;20192;-67
2021/03/05 10:09:09;;;;;;;13.80;9.70;;;;;;;2.93;91.75;97251.16;5037146;28;20182;-67
2021/03/05 10:11:46;;;;;;;16.97;9.57;;;;;;;2.78;91.39;97253.63;5054402;28;20166;-67
2021/03/05 10:14:21;;;;;;;15.70;10.07;;;;;;;2.77;90.06;97246.03;5036064;28;20249;-66
2021/03/05 10:16:47;;;;;;;13.57;10.23;;;;;;;2.77;91.30;97251.19;5054553;28;20177;-68
2021/03/05 10:19:17;;;;;;;16.63;10.10;;;;;;;2.82;90.77;97257.50;5053893;28;20544;-65
2021/03/05 10:21:45;;;;;;;14.13;10.00;;;;;;;2.84;90.85;97259.94;5054885;28;20606;-67
2021/03/05 10:24:13;;;;;;;17.67;10.83;;;;;;;2.98;90.09;97261.00;5036219;28;20186;-66
2021/03/05 10:27:10;;;;;;;12.07;8.90;;;;;;;2.97;89.76;97260.19;5054333;28;20198;-67
2021/03/05 10:29:24;;;;;;;13.83;8.60;;;;;;;2.99;88.79;97260.84;5058963;28;20269;-67
2021/03/05 10:31:52;;;;;;;13.17;9.17;;;;;;;3.14;88.30;97268.69;5061399;28;20269;-67
2021/03/05 10:34:29;;;;;;;16.63;10.50;;;;;;;3.12;87.79;97266.28;5068514;28;20737;-68
2021/03/05 10:37:03;;;;;;;14.63;9.80;;;;;;;3.19;87.59;97269.81;5077297;28;20205;-68
2021/03/05 10:39:32;;;;;;;18.23;10.53;;;;;;;3.17;88.70;97276.16;5074076;28;20238;-67
2021/03/05 10:42:00;;;;;;;15.60;10.03;;;;;;;3.29;87.44;97275.59;5078594;28;20216;-67
2021/03/05 10:44:27;;;;;;;15.40;10.30;;;;;;;3.53;85.02;97272.09;5085105;28;20176;-68
2021/03/05 10:46:58;;;;;;;12.83;9.67;;;;;;;3.51;83.04;97275.84;5091384;28;20225;-68
2021/03/05 10:49:24;;;;;;;13.60;9.17;;;;;;;3.32;84.50;97274.47;5087761;28;20181;-68
2021/03/05 10:51:50;;;;;;;14.17;10.07;;;;;;;3.58;85.28;97282.75;5076937;28;20209;-67
2021/03/05 10:54:15;;;;;;;17.10;10.33;;;;;;;3.72;84.47;97289.00;5079584;28;20283;-68
2021/03/05 10:56:41;;;;;;;14.47;9.57;;;;;;;3.68;84.19;97283.31;5074937;28;20196;-68
2021/03/05 10:59:08;;;;;;;16.10;9.93;;;;;;;3.83;83.82;97286.00;5073677;28;20212;-68
2021/03/05 11:01:33;;;;;;;13.37;9.97;;;;;;;3.76;83.57;97290.25;5082085;28;20177;-68
2021/03/05 11:03:59;;;;;;;15.60;9.73;;;;;;;3.77;84.34;97289.28;5087052;28;20208;-67
2021/03/05 11:06:24;;;;;;;16.00;9.40;;;;;;;3.87;85.53;97300.25;5093001;28;20260;-68
2021/03/05 11:08:50;;;;;;;14.37;10.10;;;;;;;4.00;83.21;97302.28;5086648;28;20182;-68
2021/03/05 11:11:15;;;;;;;13.87;9.13;;;;;;;3.74;81.52;97298.19;5078203;28;20173;-68
2021/03/05 11:13:40;;;;;;;12.27;9.00;;;;;;;3.62;83.44;97307.34;5093855;28;20281;-68
2021/03/05 11:16:06;;;;;;;11.53;9.10;;;;;;;3.68;82.86;97301.47;5086528;28;20180;-68
2021/03/05 11:18:31;;;;;;;12.00;9.50;;;;;;;3.72;82.78;97304.56;5072386;28;20735;-67
2021/03/05 11:20:57;;;;;;;11.70;9.10;;;;;;;3.78;81.97;97303.88;5076547;28;20177;-68
2021/03/05 11:23:22;;;;;;;12.13;9.27;;;;;;;3.75;81.35;97310.19;5091455;28;20203;-67
2021/03/05 11:25:47;;;;;;;15.47;10.10;;;;;;;3.82;81.53;97304.31;5080423;28;20193;-68
2021/03/05 11:28:16;;;;;;;13.07;9.27;;;;;;;3.88;81.68;97307.03;5082268;28;20275;-67
2021/03/05 11:30:43;;;;;;;13.53;9.80;;;;;;;3.91;81.11;97316.25;5073735;28;20205;-68
2021/03/05 11:33:08;;;;;;;13.97;9.40;;;;;;;3.84;80.78;97317.94;5089087;28;20208;-68
2021/03/05 11:35:33;;;;;;;13.67;9.07;;;;;;;3.62;81.41;97316.91;5073325;28;20224;-68